Weather at Julius Nyerere International Airport

Public forecast

Using degrees Celsius for public forecast. Weather courtesy of forecast.io.

Current aviation weather report (METAR) for Julius Nyerere International Airport

Report is more than 6 hours old.

2022/11/14 13:00 (retrieved 2 years ago)

HTDA 141300Z 06011KT 9999 FEW031 31/21 Q1012 NOSIG

Aviation forecast (TAF) for Julius Nyerere International Airport

Forecast is more than 12 hours old.

2023/02/22 18:00 (retrieved 1 year ago)

TAF HTDA 221700Z 2218/2324 05010KT 9999 SCT013